createdAt,value
2024-04-07T00:03:39.416Z,100469.48
2024-04-07T00:08:42.541Z,100470.52
2024-04-07T00:13:52.922Z,100473.89
2024-04-07T00:19:04.484Z,100474.54
2024-04-07T00:24:39.799Z,100470.44
2024-04-07T00:30:00.786Z,100464.59
2024-04-07T00:35:28.519Z,100464.81
2024-04-07T00:40:59.438Z,100454.86
2024-04-07T00:46:28.657Z,100450.43
2024-04-07T00:51:46.094Z,100450.46
2024-04-07T00:57:13.445Z,100448.16
2024-04-07T01:02:44.004Z,100435.54
2024-04-07T01:07:51.000Z,100440.00
2024-04-07T01:13:17.246Z,100438.96
2024-04-07T01:18:43.232Z,100433.10
2024-04-07T01:24:20.114Z,100432.77
2024-04-07T01:29:32.354Z,100428.67
2024-04-07T01:34:35.367Z,100430.13
2024-04-07T01:40:03.138Z,100431.02
2024-04-07T01:45:20.369Z,100435.86
2024-04-07T01:50:28.048Z,100441.63
2024-04-07T01:55:31.085Z,100438.83
2024-04-07T02:01:05.531Z,100438.73
2024-04-07T02:06:37.580Z,100432.81
2024-04-07T02:12:17.258Z,100431.33
2024-04-07T02:17:42.996Z,100430.07
2024-04-07T02:23:20.368Z,100423.79
2024-04-07T02:28:26.887Z,100406.73
2024-04-07T02:33:42.566Z,100400.48
2024-04-07T02:39:10.323Z,100398.31
2024-04-07T02:44:44.799Z,100405.56
2024-04-07T02:50:10.379Z,100412.52
2024-04-07T02:55:23.181Z,100421.32
2024-04-07T03:00:49.385Z,100431.66
2024-04-07T03:06:15.761Z,100438.39
2024-04-07T03:11:35.487Z,100430.59
2024-04-07T03:16:48.485Z,100423.12
2024-04-07T03:22:03.960Z,100408.65
2024-04-07T03:27:16.210Z,100410.53
2024-04-07T03:32:28.157Z,100415.35
2024-04-07T03:37:33.897Z,100412.84
2024-04-07T03:43:00.075Z,100416.70
2024-04-07T03:48:13.663Z,100430.96
2024-04-07T03:53:38.295Z,100432.31
2024-04-07T03:58:43.993Z,100424.66
2024-04-07T04:03:56.112Z,100430.88
2024-04-07T04:09:08.131Z,100437.28
2024-04-07T04:14:31.743Z,100451.08
2024-04-07T04:19:35.310Z,100454.92
2024-04-07T04:24:40.898Z,100451.79
2024-04-07T04:29:52.532Z,100439.81
2024-04-07T04:35:15.326Z,100464.19
2024-04-07T04:40:27.616Z,100455.25
2024-04-07T04:46:00.294Z,100461.30
2024-04-07T04:51:04.778Z,100459.29
2024-04-07T04:56:10.471Z,100451.09
2024-04-07T05:01:17.922Z,100438.51
2024-04-07T05:06:25.761Z,100432.04
2024-04-07T05:11:36.733Z,100426.20
2024-04-07T05:16:39.819Z,100426.41
2024-04-07T05:21:43.401Z,100429.14
2024-04-07T05:26:46.548Z,100425.21
2024-04-07T05:31:51.441Z,100418.86
2024-04-07T05:36:54.588Z,100421.45
2024-04-07T05:41:57.617Z,100425.69
2024-04-07T05:47:00.920Z,100420.05
2024-04-07T05:52:04.598Z,100426.41
2024-04-07T05:57:07.622Z,100412.28
2024-04-07T06:02:10.772Z,100391.63
2024-04-07T06:07:13.674Z,100392.23
2024-04-07T06:12:24.092Z,100402.99
2024-04-07T06:17:27.111Z,100405.34
2024-04-07T06:22:30.138Z,100404.14
2024-04-07T06:27:33.925Z,100407.27
2024-04-07T06:32:37.098Z,100410.55
2024-04-07T06:37:40.220Z,100406.45
2024-04-07T06:42:43.207Z,100409.55
2024-04-07T06:47:46.162Z,100419.80
2024-04-07T06:52:49.114Z,100430.66
2024-04-07T06:57:54.413Z,100430.52
2024-04-07T07:02:58.462Z,100431.83
2024-04-07T07:08:01.464Z,100426.09
2024-04-07T07:13:04.582Z,100423.62
2024-04-07T07:18:09.608Z,100425.77
2024-04-07T07:23:15.156Z,100440.86
2024-04-07T07:28:18.096Z,100438.11
2024-04-07T07:33:21.066Z,100431.90
2024-04-07T07:38:25.399Z,100432.16
2024-04-07T07:43:28.282Z,100434.13
2024-04-07T07:48:31.218Z,100426.96
2024-04-07T07:53:34.463Z,100422.96
2024-04-07T07:58:38.526Z,100423.25
2024-04-07T08:03:41.575Z,100409.52
2024-04-07T08:08:44.712Z,100402.45
2024-04-07T08:13:47.688Z,100400.86
2024-04-07T08:18:50.787Z,100400.27
2024-04-07T08:23:53.827Z,100407.13
2024-04-07T08:28:57.125Z,100393.39
2024-04-07T08:34:00.044Z,100395.55
2024-04-07T08:39:03.056Z,100395.48
2024-04-07T08:44:08.007Z,100389.48
2024-04-07T08:49:13.007Z,100376.44
2024-04-07T08:54:17.497Z,100372.39
2024-04-07T08:59:22.648Z,100381.45
2024-04-07T09:04:26.918Z,100367.04
2024-04-07T09:09:29.967Z,100360.65
2024-04-07T09:14:34.294Z,100358.73
2024-04-07T09:19:39.072Z,100358.85
2024-04-07T09:24:42.047Z,100344.78
2024-04-07T09:29:45.446Z,100340.27
2024-04-07T09:34:51.582Z,100336.95
2024-04-07T09:39:54.566Z,100332.98
2024-04-07T09:45:02.874Z,100336.88
2024-04-07T09:50:15.596Z,100345.56
2024-04-07T09:55:21.401Z,100335.55
2024-04-07T10:00:24.634Z,100340.16
2024-04-07T10:05:27.694Z,100340.55
2024-04-07T10:10:31.112Z,100340.69
2024-04-07T10:15:34.316Z,100347.89
2024-04-07T10:20:37.324Z,100339.66
2024-04-07T10:25:48.069Z,100340.80
2024-04-07T10:30:59.203Z,100340.64
2024-04-07T10:36:02.326Z,100344.89
2024-04-07T10:41:05.386Z,100331.70
2024-04-07T10:46:08.641Z,100329.96
2024-04-07T10:51:15.022Z,100327.69
2024-04-07T10:56:18.029Z,100318.94
2024-04-07T11:01:21.645Z,100313.17
2024-04-07T11:06:25.849Z,100302.87
2024-04-07T11:11:30.729Z,100300.11
2024-04-07T11:16:36.804Z,100304.52
2024-04-07T11:21:40.081Z,100296.70
2024-04-07T11:26:43.331Z,100293.48
2024-04-07T11:32:07.715Z,100292.53
2024-04-07T11:37:15.556Z,100293.55
2024-04-07T11:42:18.774Z,100289.45
2024-04-07T11:47:22.690Z,100281.48
2024-04-07T11:52:25.506Z,100278.86
2024-04-07T11:57:28.592Z,100274.17
2024-04-07T12:02:31.776Z,100276.91
2024-04-07T12:07:35.592Z,100275.79
2024-04-07T12:12:38.635Z,100273.38
2024-04-07T12:17:41.643Z,100282.44
2024-04-07T12:22:44.755Z,100281.61
2024-04-07T12:27:47.655Z,100282.38
2024-04-07T12:32:50.729Z,100288.82
2024-04-07T12:37:55.000Z,100265.86
2024-04-07T12:42:57.999Z,100264.89
2024-04-07T12:48:01.225Z,100275.84
2024-04-07T12:53:04.778Z,100281.26
2024-04-07T12:58:08.053Z,100275.77
2024-04-07T13:03:11.635Z,100273.63
2024-04-07T13:08:14.976Z,100259.82
2024-04-07T13:13:18.072Z,100261.89
2024-04-07T13:18:21.194Z,100265.30
2024-04-07T13:23:24.200Z,100262.65
2024-04-07T13:28:27.278Z,100252.23
2024-04-07T13:33:30.341Z,100251.85
2024-04-07T13:38:33.323Z,100245.66
2024-04-07T13:43:36.398Z,100240.55
2024-04-07T13:48:39.328Z,100220.79
2024-04-07T13:53:42.345Z,100219.88
2024-04-07T13:58:45.553Z,100218.06
2024-04-07T14:03:48.676Z,100214.84
2024-04-07T14:08:51.659Z,100205.48
2024-04-07T14:13:54.873Z,100199.11
2024-04-07T14:18:57.907Z,100196.85
2024-04-07T14:24:00.893Z,100195.13
2024-04-07T14:29:07.028Z,100188.47
2024-04-07T14:34:10.165Z,100178.89
2024-04-07T14:39:13.478Z,100174.29
2024-04-07T14:44:17.539Z,100174.89
2024-04-07T14:49:21.745Z,100171.23
2024-04-07T14:54:24.751Z,100176.44
2024-04-07T14:59:27.862Z,100171.95
2024-04-07T15:04:30.945Z,100172.52
2024-04-07T15:09:39.326Z,100174.50
2024-04-07T15:14:42.250Z,100165.88
2024-04-07T15:19:47.638Z,100170.36
2024-04-07T15:24:54.476Z,100169.72
2024-04-07T15:30:00.347Z,100177.02
2024-04-07T15:35:03.448Z,100180.70
2024-04-07T15:40:06.655Z,100180.58
2024-04-07T15:45:09.670Z,100177.91
2024-04-07T15:50:13.879Z,100170.64
2024-04-07T15:55:17.250Z,100165.41
2024-04-07T16:00:20.686Z,100165.96
2024-04-07T16:05:23.667Z,100161.80
2024-04-07T16:10:26.679Z,100155.29
2024-04-07T16:15:29.609Z,100145.77
2024-04-07T16:20:33.832Z,100154.11
2024-04-07T16:25:36.781Z,100150.68
2024-04-07T16:30:39.728Z,100145.79
2024-04-07T16:35:42.773Z,100140.84
2024-04-07T16:40:54.122Z,100143.84
2024-04-07T16:45:57.384Z,100141.65
2024-04-07T16:51:01.567Z,100149.78
2024-04-07T16:56:06.017Z,100150.81
2024-04-07T17:01:08.901Z,100148.55
2024-04-07T17:06:12.002Z,100151.95
2024-04-07T17:11:15.073Z,100155.02
2024-04-07T17:16:18.314Z,100160.02
2024-04-07T17:21:21.304Z,100164.86
2024-04-07T17:26:25.004Z,100166.54
2024-04-07T17:31:27.869Z,100163.35
2024-04-07T17:36:31.784Z,100158.48
2024-04-07T17:41:34.794Z,100159.08
2024-04-07T17:46:37.764Z,100164.13
2024-04-07T17:51:40.879Z,100167.36
2024-04-07T17:56:43.958Z,100164.34
2024-04-07T18:01:46.775Z,100171.19
2024-04-07T18:06:50.494Z,100172.25
2024-04-07T18:11:53.342Z,100169.55
2024-04-07T18:16:56.726Z,100163.67
2024-04-07T18:21:59.826Z,100172.89
2024-04-07T18:27:04.443Z,100168.27
2024-04-07T18:32:07.606Z,100173.45
2024-04-07T18:37:10.603Z,100187.80
2024-04-07T18:42:13.686Z,100199.69
2024-04-07T18:47:18.785Z,100200.58
2024-04-07T18:52:22.195Z,100212.66
2024-04-07T18:57:25.498Z,100246.70
2024-04-07T19:02:36.199Z,100255.23
2024-04-07T19:07:39.999Z,100244.78
2024-04-07T19:12:42.810Z,100259.10
2024-04-07T19:17:45.851Z,100258.70
2024-04-07T19:22:49.018Z,100262.69
2024-04-07T19:27:52.011Z,100269.52
2024-04-07T19:32:58.961Z,100277.36
2024-04-07T19:38:03.704Z,100275.66
2024-04-07T19:43:06.900Z,100271.29
2024-04-07T19:48:10.692Z,100283.03
2024-04-07T19:53:14.730Z,100290.25
2024-04-07T19:58:19.808Z,100278.44
2024-04-07T20:03:23.370Z,100281.83
2024-04-07T20:08:26.661Z,100283.98
2024-04-07T20:13:29.541Z,100297.98
2024-04-07T20:18:32.448Z,100299.95
2024-04-07T20:23:35.342Z,100318.05
2024-04-07T20:28:38.314Z,100324.58
2024-04-07T20:33:41.339Z,100322.09
2024-04-07T20:38:44.336Z,100323.38
2024-04-07T20:43:47.858Z,100334.43
2024-04-07T20:48:50.979Z,100330.61
2024-04-07T20:53:53.955Z,100327.06
2024-04-07T20:58:56.976Z,100322.61
2024-04-07T21:04:00.005Z,100324.70
2024-04-07T21:09:05.140Z,100327.48
2024-04-07T21:14:08.103Z,100319.89
2024-04-07T21:19:11.119Z,100322.28
2024-04-07T21:24:14.291Z,100330.41
2024-04-07T21:29:18.266Z,100337.57
2024-04-07T21:34:21.195Z,100344.48
2024-04-07T21:39:24.182Z,100331.83
2024-04-07T21:44:27.222Z,100325.59
2024-04-07T21:49:31.806Z,100333.73
2024-04-07T21:54:34.840Z,100340.41
2024-04-07T21:59:37.978Z,100338.92
2024-04-07T22:04:41.135Z,100332.91
2024-04-07T22:09:44.250Z,100334.34
2024-04-07T22:14:47.258Z,100337.88
2024-04-07T22:19:50.468Z,100339.08
2024-04-07T22:24:53.383Z,100332.77
2024-04-07T22:29:57.437Z,100330.08
2024-04-07T22:35:00.299Z,100323.80
2024-04-07T22:40:05.319Z,100320.55
2024-04-07T22:45:08.464Z,100325.55
2024-04-07T22:50:11.448Z,100326.45
2024-04-07T22:55:14.471Z,100323.89
2024-04-07T23:00:17.854Z,100329.48
2024-04-07T23:05:20.861Z,100327.89
2024-04-07T23:10:24.127Z,100328.00
2024-04-07T23:15:27.776Z,100326.96
2024-04-07T23:20:30.903Z,100328.36
2024-04-07T23:25:33.995Z,100331.17
2024-04-07T23:30:37.218Z,100341.77
2024-04-07T23:35:40.327Z,100346.09
2024-04-07T23:40:43.419Z,100335.32
2024-04-07T23:45:47.275Z,100325.50
2024-04-07T23:50:50.539Z,100315.04
2024-04-07T23:55:54.124Z,100303.06
